sensor_id;sensor_type;location;lat;lon;timestamp;pressure;altitude;pressure_sealevel;temperature;humidity
30724;BME280;17473;52.286;20.930;2023-05-14T00:01:31;100970.81;;;13.64;54.82
30724;BME280;17473;52.286;20.930;2023-05-14T00:03:58;100966.88;;;13.51;55.32
30724;BME280;17473;52.286;20.930;2023-05-14T00:06:25;100962.25;;;13.43;55.73
30724;BME280;17473;52.286;20.930;2023-05-14T00:08:52;100966.88;;;13.51;55.50
30724;BME280;17473;52.286;20.930;2023-05-14T00:11:19;100967.13;;;13.58;55.12
30724;BME280;17473;52.286;20.930;2023-05-14T00:13:47;100961.00;;;13.61;55.15
30724;BME280;17473;52.286;20.930;2023-05-14T00:16:14;100967.13;;;13.58;56.21
30724;BME280;17473;52.286;20.930;2023-05-14T00:18:42;100967.22;;;13.61;56.50
30724;BME280;17473;52.286;20.930;2023-05-14T00:21:09;100962.69;;;13.59;56.44
30724;BME280;17473;52.286;20.930;2023-05-14T00:23:36;100961.81;;;13.58;57.06
30724;BME280;17473;52.286;20.930;2023-05-14T00:26:03;100960.41;;;13.41;58.17
30724;BME280;17473;52.286;20.930;2023-05-14T00:28:30;100961.34;;;13.43;57.65
30724;BME280;17473;52.286;20.930;2023-05-14T00:30:57;100953.28;;;13.40;56.45
30724;BME280;17473;52.286;20.930;2023-05-14T00:33:24;100953.69;;;13.52;55.11
30724;BME280;17473;52.286;20.930;2023-05-14T00:35:51;100955.66;;;13.59;54.15
30724;BME280;17473;52.286;20.930;2023-05-14T00:38:18;100956.09;;;13.44;55.07
30724;BME280;17473;52.286;20.930;2023-05-14T00:40:45;100953.22;;;13.38;55.18
30724;BME280;17473;52.286;20.930;2023-05-14T00:43:19;100942.53;;;13.37;55.11
30724;BME280;17473;52.286;20.930;2023-05-14T00:45:49;100956.72;;;13.37;55.47
30724;BME280;17473;52.286;20.930;2023-05-14T00:48:17;100954.06;;;13.37;55.93
30724;BME280;17473;52.286;20.930;2023-05-14T00:50:45;100955.97;;;13.41;55.43
30724;BME280;17473;52.286;20.930;2023-05-14T00:53:12;100947.78;;;13.34;55.75
30724;BME280;17473;52.286;20.930;2023-05-14T00:55:41;100949.16;;;13.22;56.08
30724;BME280;17473;52.286;20.930;2023-05-14T00:58:12;100954.31;;;13.18;56.26
30724;BME280;17473;52.286;20.930;2023-05-14T01:00:40;100953.50;;;13.20;56.27
30724;BME280;17473;52.286;20.930;2023-05-14T01:03:08;100957.09;;;13.21;56.59
30724;BME280;17473;52.286;20.930;2023-05-14T01:09:17;100959.28;;;13.07;56.83
30724;BME280;17473;52.286;20.930;2023-05-14T01:12:05;100964.13;;;12.93;57.24
30724;BME280;17473;52.286;20.930;2023-05-14T01:17:11;100953.03;;;13.05;57.28
30724;BME280;17473;52.286;20.930;2023-05-14T01:19:46;100957.38;;;13.03;57.62
30724;BME280;17473;52.286;20.930;2023-05-14T01:22:13;100942.97;;;12.94;57.79
30724;BME280;17473;52.286;20.930;2023-05-14T01:24:40;100958.69;;;12.88;58.03
30724;BME280;17473;52.286;20.930;2023-05-14T01:30:36;100938.81;;;12.75;58.82
30724;BME280;17473;52.286;20.930;2023-05-14T01:33:12;100938.66;;;12.71;59.42
30724;BME280;17473;52.286;20.930;2023-05-14T01:35:39;100938.38;;;12.63;59.98
30724;BME280;17473;52.286;20.930;2023-05-14T01:38:10;100940.00;;;12.58;60.26
30724;BME280;17473;52.286;20.930;2023-05-14T01:40:38;100930.13;;;12.53;60.58
30724;BME280;17473;52.286;20.930;2023-05-14T01:43:06;100933.53;;;12.49;60.68
30724;BME280;17473;52.286;20.930;2023-05-14T01:45:35;100932.56;;;12.47;61.17
30724;BME280;17473;52.286;20.930;2023-05-14T01:48:04;100933.63;;;12.52;60.85
30724;BME280;17473;52.286;20.930;2023-05-14T01:50:31;100941.19;;;12.42;61.83
30724;BME280;17473;52.286;20.930;2023-05-14T01:52:58;100932.88;;;12.31;62.04
30724;BME280;17473;52.286;20.930;2023-05-14T01:55:25;100936.06;;;12.46;61.62
30724;BME280;17473;52.286;20.930;2023-05-14T01:57:53;100937.50;;;12.36;61.92
30724;BME280;17473;52.286;20.930;2023-05-14T02:00:23;100930.41;;;12.35;62.50
30724;BME280;17473;52.286;20.930;2023-05-14T02:02:53;100921.56;;;12.11;63.18
30724;BME280;17473;52.286;20.930;2023-05-14T02:05:20;100929.97;;;11.99;63.10
30724;BME280;17473;52.286;20.930;2023-05-14T02:07:47;100939.09;;;12.07;62.97
30724;BME280;17473;52.286;20.930;2023-05-14T02:10:14;100943.81;;;11.93;63.43
30724;BME280;17473;52.286;20.930;2023-05-14T02:12:41;100948.34;;;11.96;63.66
30724;BME280;17473;52.286;20.930;2023-05-14T02:15:09;100940.13;;;11.88;64.10
30724;BME280;17473;52.286;20.930;2023-05-14T02:17:37;100933.25;;;11.69;64.73
30724;BME280;17473;52.286;20.930;2023-05-14T02:20:05;100929.69;;;11.68;65.59
30724;BME280;17473;52.286;20.930;2023-05-14T02:22:32;100930.97;;;11.78;64.97
30724;BME280;17473;52.286;20.930;2023-05-14T02:24:59;100929.03;;;11.74;65.02
30724;BME280;17473;52.286;20.930;2023-05-14T02:27:27;100929.91;;;11.74;65.71
30724;BME280;17473;52.286;20.930;2023-05-14T02:29:54;100919.09;;;11.68;66.21
30724;BME280;17473;52.286;20.930;2023-05-14T02:32:22;100919.91;;;11.66;66.19
30724;BME280;17473;52.286;20.930;2023-05-14T02:34:49;100928.06;;;11.72;66.10
30724;BME280;17473;52.286;20.930;2023-05-14T02:37:16;100919.59;;;11.58;66.48
30724;BME280;17473;52.286;20.930;2023-05-14T02:39:43;100920.50;;;11.58;66.69
30724;BME280;17473;52.286;20.930;2023-05-14T02:42:10;100926.41;;;11.51;67.31
30724;BME280;17473;52.286;20.930;2023-05-14T02:44:37;100926.47;;;11.53;66.97
30724;BME280;17473;52.286;20.930;2023-05-14T02:47:04;100917.38;;;11.46;67.46
30724;BME280;17473;52.286;20.930;2023-05-14T02:49:32;100919.31;;;11.50;67.72
30724;BME280;17473;52.286;20.930;2023-05-14T02:51:59;100919.06;;;11.44;67.84
30724;BME280;17473;52.286;20.930;2023-05-14T02:54:26;100914.47;;;11.63;67.38
30724;BME280;17473;52.286;20.930;2023-05-14T02:56:53;100921.03;;;11.50;67.50
30724;BME280;17473;52.286;20.930;2023-05-14T02:59:22;100916.19;;;11.61;67.14
30724;BME280;17473;52.286;20.930;2023-05-14T03:01:50;100910.81;;;11.59;67.09
30724;BME280;17473;52.286;20.930;2023-05-14T03:04:18;100914.66;;;11.67;66.69
30724;BME280;17473;52.286;20.930;2023-05-14T03:06:45;100920.25;;;11.52;67.43
30724;BME280;17473;52.286;20.930;2023-05-14T03:09:12;100919.84;;;11.64;67.34
30724;BME280;17473;52.286;20.930;2023-05-14T03:11:39;100918.25;;;11.69;67.66
30724;BME280;17473;52.286;20.930;2023-05-14T03:14:06;100923.72;;;11.74;67.13
30724;BME280;17473;52.286;20.930;2023-05-14T03:16:33;100920.41;;;11.80;66.75
30724;BME280;17473;52.286;20.930;2023-05-14T03:19:00;100924.03;;;11.82;66.38
30724;BME280;17473;52.286;20.930;2023-05-14T03:21:27;100923.69;;;11.97;65.76
30724;BME280;17473;52.286;20.930;2023-05-14T03:23:54;100930.59;;;12.16;65.27
30724;BME280;17473;52.286;20.930;2023-05-14T03:26:21;100922.34;;;12.58;63.83
30724;BME280;17473;52.286;20.930;2023-05-14T03:28:49;100928.13;;;13.28;61.06
30724;BME280;17473;52.286;20.930;2023-05-14T03:31:16;100920.78;;;14.08;58.36
30724;BME280;17473;52.286;20.930;2023-05-14T03:33:44;100912.56;;;14.99;55.35
30724;BME280;17473;52.286;20.930;2023-05-14T03:36:11;100921.63;;;15.89;52.25
30724;BME280;17473;52.286;20.930;2023-05-14T03:38:38;100909.56;;;16.54;50.18
30724;BME280;17473;52.286;20.930;2023-05-14T03:41:05;100908.50;;;16.95;48.83
30724;BME280;17473;52.286;20.930;2023-05-14T03:43:32;100911.84;;;17.43;47.93
30724;BME280;17473;52.286;20.930;2023-05-14T03:45:59;100913.91;;;17.62;47.32
30724;BME280;17473;52.286;20.930;2023-05-14T03:48:26;100912.38;;;18.60;44.66
30724;BME280;17473;52.286;20.930;2023-05-14T03:50:53;100910.91;;;19.01;43.52
30724;BME280;17473;52.286;20.930;2023-05-14T03:53:20;100909.69;;;19.94;41.42
30724;BME280;17473;52.286;20.930;2023-05-14T03:55:47;100903.56;;;20.53;40.24
30724;BME280;17473;52.286;20.930;2023-05-14T03:58:15;100900.91;;;21.05;39.20
30724;BME280;17473;52.286;20.930;2023-05-14T04:00:42;100904.25;;;21.86;37.53
30724;BME280;17473;52.286;20.930;2023-05-14T04:03:09;100897.84;;;22.12;37.20
30724;BME280;17473;52.286;20.930;2023-05-14T04:05:37;100897.31;;;22.88;35.74
30724;BME280;17473;52.286;20.930;2023-05-14T04:08:04;100899.03;;;23.81;34.31
30724;BME280;17473;52.286;20.930;2023-05-14T04:10:31;100894.34;;;24.58;32.72
30724;BME280;17473;52.286;20.930;2023-05-14T04:12:58;100897.38;;;24.94;32.26
30724;BME280;17473;52.286;20.930;2023-05-14T04:15:26;100895.50;;;25.46;31.13
30724;BME280;17473;52.286;20.930;2023-05-14T04:17:53;100891.50;;;26.48;29.74
30724;BME280;17473;52.286;20.930;2023-05-14T04:20:20;100886.75;;;26.95;28.86
30724;BME280;17473;52.286;20.930;2023-05-14T04:22:47;100891.25;;;26.95;28.54
30724;BME280;17473;52.286;20.930;2023-05-14T04:25:14;100890.72;;;27.79;27.78
30724;BME280;17473;52.286;20.930;2023-05-14T04:27:41;100887.59;;;28.52;26.50
30724;BME280;17473;52.286;20.930;2023-05-14T04:30:09;100880.50;;;28.74;26.26
30724;BME280;17473;52.286;20.930;2023-05-14T04:32:36;100896.63;;;29.06;25.55
30724;BME280;17473;52.286;20.930;2023-05-14T04:35:04;100884.72;;;29.85;25.02
30724;BME280;17473;52.286;20.930;2023-05-14T04:37:31;100888.72;;;30.22;24.17
30724;BME280;17473;52.286;20.930;2023-05-14T04:39:59;100890.88;;;31.23;22.97
30724;BME280;17473;52.286;20.930;2023-05-14T04:42:26;100888.28;;;31.80;22.71
30724;BME280;17473;52.286;20.930;2023-05-14T04:44:53;100879.41;;;31.15;23.43
30724;BME280;17473;52.286;20.930;2023-05-14T04:47:20;100883.28;;;31.90;22.54
30724;BME280;17473;52.286;20.930;2023-05-14T04:49:48;100882.47;;;32.26;21.94
30724;BME280;17473;52.286;20.930;2023-05-14T04:52:15;100890.34;;;32.33;21.67
30724;BME280;17473;52.286;20.930;2023-05-14T04:54:42;100885.19;;;33.51;20.97
30724;BME280;17473;52.286;20.930;2023-05-14T04:57:09;100891.47;;;33.53;20.79
30724;BME280;17473;52.286;20.930;2023-05-14T04:59:36;100890.44;;;33.89;20.30
30724;BME280;17473;52.286;20.930;2023-05-14T05:02:03;100898.66;;;34.05;20.05
30724;BME280;17473;52.286;20.930;2023-05-14T05:04:30;100901.69;;;33.83;20.01
30724;BME280;17473;52.286;20.930;2023-05-14T05:06:57;100886.13;;;33.34;20.18
30724;BME280;17473;52.286;20.930;2023-05-14T05:09:24;100892.97;;;33.07;20.81
30724;BME280;17473;52.286;20.930;2023-05-14T05:11:51;100888.03;;;33.32;20.58
30724;BME280;17473;52.286;20.930;2023-05-14T05:14:18;100880.19;;;34.41;19.55
30724;BME280;17473;52.286;20.930;2023-05-14T05:16:45;100878.91;;;32.80;20.51
30724;BME280;17473;52.286;20.930;2023-05-14T05:19:13;100889.75;;;34.01;19.53
30724;BME280;17473;52.286;20.930;2023-05-14T05:21:40;100885.09;;;33.70;19.78
30724;BME280;17473;52.286;20.930;2023-05-14T05:24:07;100887.78;;;33.54;20.15
30724;BME280;17473;52.286;20.930;2023-05-14T05:26:34;100882.16;;;33.73;20.08
30724;BME280;17473;52.286;20.930;2023-05-14T05:29:05;100866.81;;;36.27;17.76
30724;BME280;17473;52.286;20.930;2023-05-14T05:31:32;100874.56;;;34.90;19.04
30724;BME280;17473;52.286;20.930;2023-05-14T05:33:59;100875.72;;;35.31;17.89
30724;BME280;17473;52.286;20.930;2023-05-14T05:36:27;100870.59;;;36.12;17.63
30724;BME280;17473;52.286;20.930;2023-05-14T05:38:54;100876.41;;;36.07;17.31
30724;BME280;17473;52.286;20.930;2023-05-14T05:41:21;100873.06;;;35.73;17.77
30724;BME280;17473;52.286;20.930;2023-05-14T05:43:48;100873.38;;;35.97;17.68
30724;BME280;17473;52.286;20.930;2023-05-14T05:46:16;100872.06;;;36.17;17.48
30724;BME280;17473;52.286;20.930;2023-05-14T05:48:43;100880.69;;;36.26;17.11
30724;BME280;17473;52.286;20.930;2023-05-14T05:51:10;100877.91;;;37.59;16.49
30724;BME280;17473;52.286;20.930;2023-05-14T05:53:37;100878.25;;;36.21;17.52
30724;BME280;17473;52.286;20.930;2023-05-14T05:56:04;100880.09;;;37.28;16.24
30724;BME280;17473;52.286;20.930;2023-05-14T05:58:32;100877.38;;;37.41;15.99
30724;BME280;17473;52.286;20.930;2023-05-14T06:00:59;100875.94;;;38.49;15.01
30724;BME280;17473;52.286;20.930;2023-05-14T06:03:27;100873.63;;;38.91;14.65
30724;BME280;17473;52.286;20.930;2023-05-14T06:05:54;100873.47;;;38.57;15.07
30724;BME280;17473;52.286;20.930;2023-05-14T06:08:21;100871.13;;;38.64;15.14
30724;BME280;17473;52.286;20.930;2023-05-14T06:10:48;100877.78;;;37.48;15.58
30724;BME280;17473;52.286;20.930;2023-05-14T06:13:15;100873.03;;;37.89;15.47
30724;BME280;17473;52.286;20.930;2023-05-14T06:15:42;100878.25;;;38.18;15.19
30724;BME280;17473;52.286;20.930;2023-05-14T06:18:09;100864.78;;;37.11;16.01
30724;BME280;17473;52.286;20.930;2023-05-14T06:20:36;100862.81;;;36.18;16.15
30724;BME280;17473;52.286;20.930;2023-05-14T06:23:03;100868.84;;;37.32;15.82
30724;BME280;17473;52.286;20.930;2023-05-14T06:25:31;100867.81;;;37.47;15.57
30724;BME280;17473;52.286;20.930;2023-05-14T06:27:58;100875.81;;;37.37;15.56
30724;BME280;17473;52.286;20.930;2023-05-14T06:30:25;100877.03;;;37.33;15.48
30724;BME280;17473;52.286;20.930;2023-05-14T06:32:52;100872.16;;;36.71;16.14
30724;BME280;17473;52.286;20.930;2023-05-14T06:35:20;100869.41;;;36.71;16.11
30724;BME280;17473;52.286;20.930;2023-05-14T06:37:47;100880.97;;;37.68;15.45
30724;BME280;17473;52.286;20.930;2023-05-14T06:40:14;100869.22;;;37.40;15.55
30724;BME280;17473;52.286;20.930;2023-05-14T06:42:41;100874.75;;;36.87;16.24
30724;BME280;17473;52.286;20.930;2023-05-14T06:45:09;100874.03;;;36.57;16.36
30724;BME280;17473;52.286;20.930;2023-05-14T06:47:36;100873.06;;;35.87;16.36
30724;BME280;17473;52.286;20.930;2023-05-14T06:50:03;100869.09;;;36.21;16.11
30724;BME280;17473;52.286;20.930;2023-05-14T06:52:31;100868.44;;;36.72;16.37
30724;BME280;17473;52.286;20.930;2023-05-14T06:54:58;100874.72;;;36.46;16.42
30724;BME280;17473;52.286;20.930;2023-05-14T06:57:25;100861.22;;;36.43;16.46
30724;BME280;17473;52.286;20.930;2023-05-14T06:59:52;100867.06;;;36.10;16.64
30724;BME280;17473;52.286;20.930;2023-05-14T07:02:19;100860.50;;;36.40;16.28
30724;BME280;17473;52.286;20.930;2023-05-14T07:04:46;100856.97;;;37.05;16.29
30724;BME280;17473;52.286;20.930;2023-05-14T07:07:14;100851.97;;;37.38;15.76
30724;BME280;17473;52.286;20.930;2023-05-14T07:09:44;100851.28;;;36.13;16.49
30724;BME280;17473;52.286;20.930;2023-05-14T07:12:11;100859.03;;;37.92;14.71
30724;BME280;17473;52.286;20.930;2023-05-14T07:14:38;100852.72;;;35.63;16.09
30724;BME280;17473;52.286;20.930;2023-05-14T07:17:05;100852.78;;;34.57;17.02
30724;BME280;17473;52.286;20.930;2023-05-14T07:19:32;100852.28;;;34.18;18.05
30724;BME280;17473;52.286;20.930;2023-05-14T07:21:59;100858.09;;;33.29;17.84
30724;BME280;17473;52.286;20.930;2023-05-14T07:24:26;100861.56;;;33.66;17.73
30724;BME280;17473;52.286;20.930;2023-05-14T07:26:53;100850.66;;;32.25;18.05
30724;BME280;17473;52.286;20.930;2023-05-14T07:29:22;100858.38;;;32.89;18.75
30724;BME280;17473;52.286;20.930;2023-05-14T07:31:51;100857.44;;;31.78;18.94
30724;BME280;17473;52.286;20.930;2023-05-14T07:34:18;100852.22;;;31.74;19.14
30724;BME280;17473;52.286;20.930;2023-05-14T07:36:45;100846.66;;;32.13;18.95
30724;BME280;17473;52.286;20.930;2023-05-14T07:39:12;100852.34;;;31.90;18.40
30724;BME280;17473;52.286;20.930;2023-05-14T07:41:39;100841.03;;;32.16;18.57
30724;BME280;17473;52.286;20.930;2023-05-14T07:44:07;100841.72;;;32.03;18.37
30724;BME280;17473;52.286;20.930;2023-05-14T07:46:35;100838.63;;;32.47;18.31
30724;BME280;17473;52.286;20.930;2023-05-14T07:49:02;100843.75;;;30.99;19.47
30724;BME280;17473;52.286;20.930;2023-05-14T07:51:29;100833.06;;;30.51;19.58
30724;BME280;17473;52.286;20.930;2023-05-14T07:53:59;100832.19;;;29.35;20.67
30724;BME280;17473;52.286;20.930;2023-05-14T07:56:26;100819.28;;;29.88;20.79
30724;BME280;17473;52.286;20.930;2023-05-14T07:58:53;100833.03;;;29.12;21.35
30724;BME280;17473;52.286;20.930;2023-05-14T08:01:21;100824.63;;;29.43;20.63
30724;BME280;17473;52.286;20.930;2023-05-14T08:03:48;100821.78;;;29.70;20.65
30724;BME280;17473;52.286;20.930;2023-05-14T08:06:15;100816.59;;;28.37;21.92
30724;BME280;17473;52.286;20.930;2023-05-14T08:08:43;100814.38;;;30.42;19.68
30724;BME280;17473;52.286;20.930;2023-05-14T08:11:09;100809.66;;;31.11;19.50
30724;BME280;17473;52.286;20.930;2023-05-14T08:13:37;100817.47;;;30.77;19.91
30724;BME280;17473;52.286;20.930;2023-05-14T08:16:04;100800.47;;;31.12;19.73
30724;BME280;17473;52.286;20.930;2023-05-14T08:18:32;100791.97;;;31.19;19.50
30724;BME280;17473;52.286;20.930;2023-05-14T08:20:59;100806.91;;;30.47;20.15
30724;BME280;17473;52.286;20.930;2023-05-14T08:23:28;100798.44;;;30.75;20.06
30724;BME280;17473;52.286;20.930;2023-05-14T08:25:55;100798.59;;;31.73;19.34
30724;BME280;17473;52.286;20.930;2023-05-14T08:28:22;100788.06;;;32.02;18.83
30724;BME280;17473;52.286;20.930;2023-05-14T08:30:49;100782.44;;;32.24;18.35
30724;BME280;17473;52.286;20.930;2023-05-14T08:33:17;100797.00;;;31.29;19.62
30724;BME280;17473;52.286;20.930;2023-05-14T08:35:44;100786.94;;;30.69;19.51
30724;BME280;17473;52.286;20.930;2023-05-14T08:38:11;100796.16;;;29.54;20.44
30724;BME280;17473;52.286;20.930;2023-05-14T08:40:39;100781.78;;;29.50;21.09
30724;BME280;17473;52.286;20.930;2023-05-14T08:43:07;100799.53;;;29.11;21.53
30724;BME280;17473;52.286;20.930;2023-05-14T08:45:36;100781.44;;;29.10;21.49
30724;BME280;17473;52.286;20.930;2023-05-14T08:48:06;100774.94;;;28.64;21.44
30724;BME280;17473;52.286;20.930;2023-05-14T08:50:37;100779.03;;;27.95;22.02
30724;BME280;17473;52.286;20.930;2023-05-14T08:53:04;100783.41;;;28.27;22.37
30724;BME280;17473;52.286;20.930;2023-05-14T08:55:31;100773.94;;;28.41;22.22
30724;BME280;17473;52.286;20.930;2023-05-14T08:57:59;100773.81;;;28.71;22.09
30724;BME280;17473;52.286;20.930;2023-05-14T09:00:27;100764.63;;;28.48;21.44
30724;BME280;17473;52.286;20.930;2023-05-14T09:02:54;100767.09;;;28.01;22.16
30724;BME280;17473;52.286;20.930;2023-05-14T09:05:21;100768.88;;;28.02;22.76
30724;BME280;17473;52.286;20.930;2023-05-14T09:07:49;100775.03;;;27.50;23.02
30724;BME280;17473;52.286;20.930;2023-05-14T09:10:16;100761.22;;;27.26;22.14
30724;BME280;17473;52.286;20.930;2023-05-14T09:12:44;100758.00;;;27.13;22.94
30724;BME280;17473;52.286;20.930;2023-05-14T09:15:12;100768.88;;;27.12;24.25
30724;BME280;17473;52.286;20.930;2023-05-14T09:17:39;100765.47;;;27.67;23.76
30724;BME280;17473;52.286;20.930;2023-05-14T09:20:07;100757.25;;;27.70;23.31
30724;BME280;17473;52.286;20.930;2023-05-14T09:22:35;100772.81;;;26.67;23.12
30724;BME280;17473;52.286;20.930;2023-05-14T09:25:07;100762.88;;;26.67;23.91
30724;BME280;17473;52.286;20.930;2023-05-14T09:27:35;100765.13;;;26.15;24.24
30724;BME280;17473;52.286;20.930;2023-05-14T09:30:10;100755.88;;;25.86;25.59
30724;BME280;17473;52.286;20.930;2023-05-14T09:32:41;100763.94;;;25.49;24.57
30724;BME280;17473;52.286;20.930;2023-05-14T09:35:20;100751.94;;;25.62;25.01
30724;BME280;17473;52.286;20.930;2023-05-14T09:37:52;100750.28;;;25.94;24.75
30724;BME280;17473;52.286;20.930;2023-05-14T09:40:21;100747.19;;;26.47;24.13
30724;BME280;17473;52.286;20.930;2023-05-14T09:42:50;100753.47;;;26.13;23.72
30724;BME280;17473;52.286;20.930;2023-05-14T09:45:17;100737.69;;;26.31;24.29
30724;BME280;17473;52.286;20.930;2023-05-14T09:47:44;100734.16;;;26.95;25.22
30724;BME280;17473;52.286;20.930;2023-05-14T09:50:12;100745.69;;;27.01;23.55
30724;BME280;17473;52.286;20.930;2023-05-14T09:52:39;100745.53;;;26.04;24.06
30724;BME280;17473;52.286;20.930;2023-05-14T09:55:07;100741.03;;;26.74;22.95
30724;BME280;17473;52.286;20.930;2023-05-14T09:57:34;100744.69;;;26.02;22.95
30724;BME280;17473;52.286;20.930;2023-05-14T10:00:01;100746.03;;;25.44;23.71
30724;BME280;17473;52.286;20.930;2023-05-14T10:02:36;100742.66;;;25.74;24.15
30724;BME280;17473;52.286;20.930;2023-05-14T10:05:05;100744.00;;;25.54;23.48
30724;BME280;17473;52.286;20.930;2023-05-14T10:07:43;100728.13;;;24.95;25.64
30724;BME280;17473;52.286;20.930;2023-05-14T10:10:19;100737.28;;;25.31;24.89
30724;BME280;17473;52.286;20.930;2023-05-14T10:12:58;100734.41;;;25.39;24.34
30724;BME280;17473;52.286;20.930;2023-05-14T10:15:36;100737.63;;;25.14;24.17
30724;BME280;17473;52.286;20.930;2023-05-14T10:18:13;100728.47;;;25.22;23.81
30724;BME280;17473;52.286;20.930;2023-05-14T10:20:42;100753.13;;;24.56;25.16
30724;BME280;17473;52.286;20.930;2023-05-14T10:23:10;100734.44;;;24.94;24.84
30724;BME280;17473;52.286;20.930;2023-05-14T10:25:37;100720.16;;;25.33;24.70
30724;BME280;17473;52.286;20.930;2023-05-14T10:28:05;100713.69;;;25.79;23.52
30724;BME280;17473;52.286;20.930;2023-05-14T10:30:32;100708.72;;;25.98;23.84
30724;BME280;17473;52.286;20.930;2023-05-14T10:33:14;100699.56;;;25.68;24.17
30724;BME280;17473;52.286;20.930;2023-05-14T10:36:04;100708.88;;;25.10;24.33
30724;BME280;17473;52.286;20.930;2023-05-14T10:38:36;100714.63;;;24.95;24.99
30724;BME280;17473;52.286;20.930;2023-05-14T10:41:11;100708.78;;;24.73;25.27
30724;BME280;17473;52.286;20.930;2023-05-14T10:43:40;100705.34;;;24.61;24.56
30724;BME280;17473;52.286;20.930;2023-05-14T10:46:10;100706.75;;;24.84;24.78
30724;BME280;17473;52.286;20.930;2023-05-14T10:48:41;100695.97;;;25.25;24.46
30724;BME280;17473;52.286;20.930;2023-05-14T10:51:10;100711.22;;;25.27;24.05
30724;BME280;17473;52.286;20.930;2023-05-14T10:53:41;100686.44;;;25.08;24.02
30724;BME280;17473;52.286;20.930;2023-05-14T10:56:11;100698.72;;;25.23;23.73
30724;BME280;17473;52.286;20.930;2023-05-14T10:58:42;100690.06;;;24.62;24.64
30724;BME280;17473;52.286;20.930;2023-05-14T11:01:12;100686.22;;;24.75;24.48
30724;BME280;17473;52.286;20.930;2023-05-14T11:03:45;100680.31;;;25.00;24.34
30724;BME280;17473;52.286;20.930;2023-05-14T11:06:15;100682.41;;;24.87;24.25
30724;BME280;17473;52.286;20.930;2023-05-14T11:08:43;100667.91;;;24.44;25.48
30724;BME280;17473;52.286;20.930;2023-05-14T11:11:10;100667.59;;;24.60;24.95
30724;BME280;17473;52.286;20.930;2023-05-14T11:13:37;100657.22;;;24.40;25.10
30724;BME280;17473;52.286;20.930;2023-05-14T11:16:05;100665.16;;;24.47;25.51
30724;BME280;17473;52.286;20.930;2023-05-14T11:18:35;100664.25;;;24.47;25.09
30724;BME280;17473;52.286;20.930;2023-05-14T11:21:04;100644.22;;;24.59;25.00
30724;BME280;17473;52.286;20.930;2023-05-14T11:23:31;100633.88;;;24.37;25.53
30724;BME280;17473;52.286;20.930;2023-05-14T11:25:58;100642.41;;;24.12;25.38
30724;BME280;17473;52.286;20.930;2023-05-14T11:28:26;100628.72;;;24.25;25.43
30724;BME280;17473;52.286;20.930;2023-05-14T11:30:53;100638.88;;;24.09;25.76
30724;BME280;17473;52.286;20.930;2023-05-14T11:33:20;100637.22;;;24.48;25.79
30724;BME280;17473;52.286;20.930;2023-05-14T11:35:47;100629.97;;;24.52;25.41
30724;BME280;17473;52.286;20.930;2023-05-14T11:38:19;100619.31;;;24.46;25.27
30724;BME280;17473;52.286;20.930;2023-05-14T11:40:55;100612.50;;;24.26;25.29
30724;BME280;17473;52.286;20.930;2023-05-14T11:43:23;100605.44;;;24.20;25.24
30724;BME280;17473;52.286;20.930;2023-05-14T11:45:53;100585.50;;;24.73;23.80
30724;BME280;17473;52.286;20.930;2023-05-14T11:48:21;100591.78;;;23.78;25.00
30724;BME280;17473;52.286;20.930;2023-05-14T11:50:51;100587.94;;;24.42;24.32
30724;BME280;17473;52.286;20.930;2023-05-14T11:53:26;100574.25;;;24.04;25.71
30724;BME280;17473;52.286;20.930;2023-05-14T11:55:54;100578.81;;;24.02;25.27
30724;BME280;17473;52.286;20.930;2023-05-14T11:58:23;100583.53;;;24.36;25.33
30724;BME280;17473;52.286;20.930;2023-05-14T12:00:52;100588.66;;;24.04;24.10
30724;BME280;17473;52.286;20.930;2023-05-14T12:03:19;100575.34;;;23.95;24.75
30724;BME280;17473;52.286;20.930;2023-05-14T12:05:59;100579.78;;;23.98;24.70
30724;BME280;17473;52.286;20.930;2023-05-14T12:08:30;100561.53;;;23.62;24.79
30724;BME280;17473;52.286;20.930;2023-05-14T12:10:59;100568.34;;;23.83;25.00
30724;BME280;17473;52.286;20.930;2023-05-14T12:13:30;100548.75;;;23.72;24.71
30724;BME280;17473;52.286;20.930;2023-05-14T12:16:00;100548.88;;;23.66;25.11
30724;BME280;17473;52.286;20.930;2023-05-14T12:18:30;100542.88;;;24.45;24.94
30724;BME280;17473;52.286;20.930;2023-05-14T12:21:05;100543.84;;;24.43;24.61
30724;BME280;17473;52.286;20.930;2023-05-14T12:23:34;100535.16;;;24.27;25.17
30724;BME280;17473;52.286;20.930;2023-05-14T12:26:05;100559.00;;;24.03;25.05
30724;BME280;17473;52.286;20.930;2023-05-14T12:28:33;100563.84;;;23.82;25.34
30724;BME280;17473;52.286;20.930;2023-05-14T12:31:04;100561.31;;;23.73;25.58
30724;BME280;17473;52.286;20.930;2023-05-14T12:33:31;100546.38;;;24.06;25.13
30724;BME280;17473;52.286;20.930;2023-05-14T12:35:58;100531.59;;;24.25;25.10
30724;BME280;17473;52.286;20.930;2023-05-14T12:38:47;100550.06;;;24.01;25.06
30724;BME280;17473;52.286;20.930;2023-05-14T12:41:14;100530.22;;;23.53;25.18
30724;BME280;17473;52.286;20.930;2023-05-14T12:43:47;100544.81;;;23.90;25.16
30724;BME280;17473;52.286;20.930;2023-05-14T12:46:15;100548.72;;;23.75;25.08
30724;BME280;17473;52.286;20.930;2023-05-14T12:48:43;100536.03;;;23.80;25.16
30724;BME280;17473;52.286;20.930;2023-05-14T12:51:09;100521.63;;;23.81;25.43
30724;BME280;17473;52.286;20.930;2023-05-14T12:53:36;100515.66;;;24.12;25.19
30724;BME280;17473;52.286;20.930;2023-05-14T12:56:05;100513.22;;;24.44;24.86